sensor_id;sensor_type;location;lat;lon;timestamp;temperature;humidity
67559;DHT22;54388;53.536;49.300;2023-05-07T00:02:00;10.40;56.20
67559;DHT22;54388;53.536;49.300;2023-05-07T00:04:29;10.40;56.00
67559;DHT22;54388;53.536;49.300;2023-05-07T00:07:05;10.30;55.60
67559;DHT22;54388;53.536;49.300;2023-05-07T00:09:31;10.30;55.30
67559;DHT22;54388;53.536;49.300;2023-05-07T00:12:02;10.20;55.20
67559;DHT22;54388;53.536;49.300;2023-05-07T00:14:29;10.20;55.10
67559;DHT22;54388;53.536;49.300;2023-05-07T00:16:57;10.10;54.70
67559;DHT22;54388;53.536;49.300;2023-05-07T00:19:27;10.10;54.60
67559;DHT22;54388;53.536;49.300;2023-05-07T00:21:57;10.10;54.50
67559;DHT22;54388;53.536;49.300;2023-05-07T00:24:24;10.10;54.30
67559;DHT22;54388;53.536;49.300;2023-05-07T00:26:59;10.00;54.20
67559;DHT22;54388;53.536;49.300;2023-05-07T00:29:30;10.00;54.00
67559;DHT22;54388;53.536;49.300;2023-05-07T00:31:57;9.90;53.80
67559;DHT22;54388;53.536;49.300;2023-05-07T00:34:23;9.90;53.60
67559;DHT22;54388;53.536;49.300;2023-05-07T00:36:52;9.80;53.50
67559;DHT22;54388;53.536;49.300;2023-05-07T00:39:21;9.80;53.30
67559;DHT22;54388;53.536;49.300;2023-05-07T00:41:54;9.80;53.20
67559;DHT22;54388;53.536;49.300;2023-05-07T00:44:25;9.80;53.10
67559;DHT22;54388;53.536;49.300;2023-05-07T00:46:55;9.70;52.90
67559;DHT22;54388;53.536;49.300;2023-05-07T00:49:42;9.70;53.00
67559;DHT22;54388;53.536;49.300;2023-05-07T00:52:16;9.70;53.00
67559;DHT22;54388;53.536;49.300;2023-05-07T00:54:43;9.60;52.80
67559;DHT22;54388;53.536;49.300;2023-05-07T00:57:13;9.60;52.90
67559;DHT22;54388;53.536;49.300;2023-05-07T00:59:41;9.60;52.80
67559;DHT22;54388;53.536;49.300;2023-05-07T01:02:10;9.50;52.70
67559;DHT22;54388;53.536;49.300;2023-05-07T01:04:43;9.50;52.60
67559;DHT22;54388;53.536;49.300;2023-05-07T01:07:12;9.50;52.60
67559;DHT22;54388;53.536;49.300;2023-05-07T01:09:41;9.40;52.60
67559;DHT22;54388;53.536;49.300;2023-05-07T01:12:16;9.40;52.50
67559;DHT22;54388;53.536;49.300;2023-05-07T01:14:48;9.40;52.50
67559;DHT22;54388;53.536;49.300;2023-05-07T01:17:16;9.40;52.40
67559;DHT22;54388;53.536;49.300;2023-05-07T01:19:48;9.40;52.40
67559;DHT22;54388;53.536;49.300;2023-05-07T01:24:47;9.30;52.20
67559;DHT22;54388;53.536;49.300;2023-05-07T01:27:16;9.30;52.10
67559;DHT22;54388;53.536;49.300;2023-05-07T01:29:49;9.30;52.10
67559;DHT22;54388;53.536;49.300;2023-05-07T01:32:21;9.20;52.00
67559;DHT22;54388;53.536;49.300;2023-05-07T01:34:55;9.20;51.90
67559;DHT22;54388;53.536;49.300;2023-05-07T01:37:26;9.20;51.90
67559;DHT22;54388;53.536;49.300;2023-05-07T01:39:57;9.20;51.80
67559;DHT22;54388;53.536;49.300;2023-05-07T01:42:26;9.20;51.70
67559;DHT22;54388;53.536;49.300;2023-05-07T01:44:55;9.20;51.60
67559;DHT22;54388;53.536;49.300;2023-05-07T01:47:25;9.20;51.60
67559;DHT22;54388;53.536;49.300;2023-05-07T01:49:54;9.20;51.60
67559;DHT22;54388;53.536;49.300;2023-05-07T01:52:26;9.30;51.60
67559;DHT22;54388;53.536;49.300;2023-05-07T01:54:58;9.40;51.30
67559;DHT22;54388;53.536;49.300;2023-05-07T01:57:29;9.50;51.10
67559;DHT22;54388;53.536;49.300;2023-05-07T01:59:58;9.70;50.90
67559;DHT22;54388;53.536;49.300;2023-05-07T02:02:25;9.90;50.50
67559;DHT22;54388;53.536;49.300;2023-05-07T02:04:56;10.00;50.10
67559;DHT22;54388;53.536;49.300;2023-05-07T02:07:28;10.30;49.70
67559;DHT22;54388;53.536;49.300;2023-05-07T02:09:59;10.50;49.20
67559;DHT22;54388;53.536;49.300;2023-05-07T02:12:27;10.70;48.80
67559;DHT22;54388;53.536;49.300;2023-05-07T02:15:01;10.90;48.40
67559;DHT22;54388;53.536;49.300;2023-05-07T02:17:30;11.20;48.00
67559;DHT22;54388;53.536;49.300;2023-05-07T02:19:59;11.40;47.50
67559;DHT22;54388;53.536;49.300;2023-05-07T02:22:28;11.70;47.10
67559;DHT22;54388;53.536;49.300;2023-05-07T02:24:57;11.90;46.50
67559;DHT22;54388;53.536;49.300;2023-05-07T02:27:26;12.20;46.10
67559;DHT22;54388;53.536;49.300;2023-05-07T02:29:55;12.40;45.70
67559;DHT22;54388;53.536;49.300;2023-05-07T02:32:24;12.70;45.20
67559;DHT22;54388;53.536;49.300;2023-05-07T02:34:53;12.90;44.70
67559;DHT22;54388;53.536;49.300;2023-05-07T02:37:24;13.10;44.30
67559;DHT22;54388;53.536;49.300;2023-05-07T02:39:51;13.50;43.50
67559;DHT22;54388;53.536;49.300;2023-05-07T02:42:20;13.80;42.80
67559;DHT22;54388;53.536;49.300;2023-05-07T02:44:51;14.10;42.10
67559;DHT22;54388;53.536;49.300;2023-05-07T02:47:18;14.40;41.40
67559;DHT22;54388;53.536;49.300;2023-05-07T02:49:49;14.70;40.80
67559;DHT22;54388;53.536;49.300;2023-05-07T02:52:21;15.00;40.10
67559;DHT22;54388;53.536;49.300;2023-05-07T02:54:50;15.40;39.30
67559;DHT22;54388;53.536;49.300;2023-05-07T02:57:17;15.70;38.70
67559;DHT22;54388;53.536;49.300;2023-05-07T02:59:49;15.90;37.90
67559;DHT22;54388;53.536;49.300;2023-05-07T03:02:20;16.20;37.30
67559;DHT22;54388;53.536;49.300;2023-05-07T03:04:51;16.50;36.50
67559;DHT22;54388;53.536;49.300;2023-05-07T03:07:20;16.70;35.90
67559;DHT22;54388;53.536;49.300;2023-05-07T03:09:49;16.90;35.10
67559;DHT22;54388;53.536;49.300;2023-05-07T03:12:18;17.20;34.60
67559;DHT22;54388;53.536;49.300;2023-05-07T03:14:49;17.40;33.50
67559;DHT22;54388;53.536;49.300;2023-05-07T03:17:19;17.70;33.00
67559;DHT22;54388;53.536;49.300;2023-05-07T03:19:47;17.90;32.60
67559;DHT22;54388;53.536;49.300;2023-05-07T03:22:18;18.10;32.00
67559;DHT22;54388;53.536;49.300;2023-05-07T03:24:46;18.40;31.30
67559;DHT22;54388;53.536;49.300;2023-05-07T03:27:17;18.60;30.80
67559;DHT22;54388;53.536;49.300;2023-05-07T03:29:49;18.80;30.20
67559;DHT22;54388;53.536;49.300;2023-05-07T03:32:15;19.00;29.60
67559;DHT22;54388;53.536;49.300;2023-05-07T03:34:49;19.20;29.30
67559;DHT22;54388;53.536;49.300;2023-05-07T03:37:21;19.40;29.10
67559;DHT22;54388;53.536;49.300;2023-05-07T03:39:50;19.60;28.90
67559;DHT22;54388;53.536;49.300;2023-05-07T03:42:19;19.80;28.10
67559;DHT22;54388;53.536;49.300;2023-05-07T03:44:48;20.10;28.10
67559;DHT22;54388;53.536;49.300;2023-05-07T03:47:14;20.20;27.90
67559;DHT22;54388;53.536;49.300;2023-05-07T03:49:44;20.30;27.70
67559;DHT22;54388;53.536;49.300;2023-05-07T03:52:16;20.50;26.90
67559;DHT22;54388;53.536;49.300;2023-05-07T03:54:48;20.70;26.30
67559;DHT22;54388;53.536;49.300;2023-05-07T03:57:15;20.80;26.50
67559;DHT22;54388;53.536;49.300;2023-05-07T03:59:46;20.90;26.20
67559;DHT22;54388;53.536;49.300;2023-05-07T04:02:15;21.00;25.90
67559;DHT22;54388;53.536;49.300;2023-05-07T04:04:46;21.20;26.00
67559;DHT22;54388;53.536;49.300;2023-05-07T04:07:14;21.30;25.60
67559;DHT22;54388;53.536;49.300;2023-05-07T04:09:41;21.40;25.50
67559;DHT22;54388;53.536;49.300;2023-05-07T04:12:07;21.60;25.40
67559;DHT22;54388;53.536;49.300;2023-05-07T04:14:33;21.60;25.00
67559;DHT22;54388;53.536;49.300;2023-05-07T04:17:00;21.80;24.60
67559;DHT22;54388;53.536;49.300;2023-05-07T04:19:29;22.00;24.30
67559;DHT22;54388;53.536;49.300;2023-05-07T04:21:58;22.10;24.40
67559;DHT22;54388;53.536;49.300;2023-05-07T04:24:24;22.20;24.00
67559;DHT22;54388;53.536;49.300;2023-05-07T04:26:51;22.30;24.00
67559;DHT22;54388;53.536;49.300;2023-05-07T04:29:18;22.40;23.00
67559;DHT22;54388;53.536;49.300;2023-05-07T04:31:45;22.70;22.30
67559;DHT22;54388;53.536;49.300;2023-05-07T04:34:11;23.10;22.10
67559;DHT22;54388;53.536;49.300;2023-05-07T04:36:38;23.30;22.00
67559;DHT22;54388;53.536;49.300;2023-05-07T04:39:07;23.60;21.70
67559;DHT22;54388;53.536;49.300;2023-05-07T04:41:36;23.70;21.60
67559;DHT22;54388;53.536;49.300;2023-05-07T04:44:07;23.80;21.60
67559;DHT22;54388;53.536;49.300;2023-05-07T04:46:37;23.80;20.90
67559;DHT22;54388;53.536;49.300;2023-05-07T04:49:03;24.10;20.00
67559;DHT22;54388;53.536;49.300;2023-05-07T04:51:30;24.40;20.30
67559;DHT22;54388;53.536;49.300;2023-05-07T04:53:58;24.50;19.90
67559;DHT22;54388;53.536;49.300;2023-05-07T04:56:28;24.50;19.90
67559;DHT22;54388;53.536;49.300;2023-05-07T04:58:55;24.60;19.80
67559;DHT22;54388;53.536;49.300;2023-05-07T05:01:22;24.60;19.50
67559;DHT22;54388;53.536;49.300;2023-05-07T05:03:48;24.60;19.40
67559;DHT22;54388;53.536;49.300;2023-05-07T05:06:14;24.60;19.10
67559;DHT22;54388;53.536;49.300;2023-05-07T05:08:41;24.80;18.80
67559;DHT22;54388;53.536;49.300;2023-05-07T05:11:10;25.00;18.00
67559;DHT22;54388;53.536;49.300;2023-05-07T05:13:39;25.40;17.80
67559;DHT22;54388;53.536;49.300;2023-05-07T05:16:05;25.60;17.80
67559;DHT22;54388;53.536;49.300;2023-05-07T05:18:32;25.70;17.60
67559;DHT22;54388;53.536;49.300;2023-05-07T05:20:59;25.50;17.80
67559;DHT22;54388;53.536;49.300;2023-05-07T05:23:25;25.40;18.20
67559;DHT22;54388;53.536;49.300;2023-05-07T05:25:56;25.20;18.30
67559;DHT22;54388;53.536;49.300;2023-05-07T05:28:23;25.00;18.50
67559;DHT22;54388;53.536;49.300;2023-05-07T05:30:50;24.80;18.90
67559;DHT22;54388;53.536;49.300;2023-05-07T05:33:17;24.70;18.70
67559;DHT22;54388;53.536;49.300;2023-05-07T05:35:45;24.70;18.90
67559;DHT22;54388;53.536;49.300;2023-05-07T05:38:14;24.60;18.90
67559;DHT22;54388;53.536;49.300;2023-05-07T05:40:43;24.50;18.40
67559;DHT22;54388;53.536;49.300;2023-05-07T05:43:09;24.70;18.40
67559;DHT22;54388;53.536;49.300;2023-05-07T05:45:36;24.80;18.60
67559;DHT22;54388;53.536;49.300;2023-05-07T05:48:05;24.80;18.30
67559;DHT22;54388;53.536;49.300;2023-05-07T05:50:34;24.80;18.40
67559;DHT22;54388;53.536;49.300;2023-05-07T05:53:04;24.60;18.40
67559;DHT22;54388;53.536;49.300;2023-05-07T05:55:30;24.40;18.50
67559;DHT22;54388;53.536;49.300;2023-05-07T05:58:01;24.30;18.60
67559;DHT22;54388;53.536;49.300;2023-05-07T06:00:28;24.20;18.50
67559;DHT22;54388;53.536;49.300;2023-05-07T06:02:55;24.10;18.00
67559;DHT22;54388;53.536;49.300;2023-05-07T06:05:23;24.30;17.90
67559;DHT22;54388;53.536;49.300;2023-05-07T06:07:54;24.60;17.80
67559;DHT22;54388;53.536;49.300;2023-05-07T06:10:23;24.70;17.20
67559;DHT22;54388;53.536;49.300;2023-05-07T06:12:53;24.80;17.20
67559;DHT22;54388;53.536;49.300;2023-05-07T06:15:19;25.00;17.30
67559;DHT22;54388;53.536;49.300;2023-05-07T06:17:47;24.90;17.40
67559;DHT22;54388;53.536;49.300;2023-05-07T06:20:13;24.90;17.00
67559;DHT22;54388;53.536;49.300;2023-05-07T06:22:40;25.10;16.40
67559;DHT22;54388;53.536;49.300;2023-05-07T06:25:06;25.50;15.90
67559;DHT22;54388;53.536;49.300;2023-05-07T06:27:33;26.00;15.90
67559;DHT22;54388;53.536;49.300;2023-05-07T06:30:02;26.30;16.10
67559;DHT22;54388;53.536;49.300;2023-05-07T06:32:28;26.50;15.70
67559;DHT22;54388;53.536;49.300;2023-05-07T06:34:55;26.70;15.70
67559;DHT22;54388;53.536;49.300;2023-05-07T06:37:24;26.80;15.50
67559;DHT22;54388;53.536;49.300;2023-05-07T06:39:51;26.80;15.20
67559;DHT22;54388;53.536;49.300;2023-05-07T06:42:17;27.00;14.90
67559;DHT22;54388;53.536;49.300;2023-05-07T06:44:44;27.20;14.70
67559;DHT22;54388;53.536;49.300;2023-05-07T06:47:10;27.40;14.80
67559;DHT22;54388;53.536;49.300;2023-05-07T06:49:37;27.30;15.00
67559;DHT22;54388;53.536;49.300;2023-05-07T06:52:03;27.10;15.20
67559;DHT22;54388;53.536;49.300;2023-05-07T06:54:30;27.00;14.90
67559;DHT22;54388;53.536;49.300;2023-05-07T06:56:56;26.80;15.00
67559;DHT22;54388;53.536;49.300;2023-05-07T06:59:25;26.60;15.20
67559;DHT22;54388;53.536;49.300;2023-05-07T07:01:52;26.40;14.80
67559;DHT22;54388;53.536;49.300;2023-05-07T07:04:18;26.50;14.60
67559;DHT22;54388;53.536;49.300;2023-05-07T07:06:45;26.60;14.40
67559;DHT22;54388;53.536;49.300;2023-05-07T07:09:14;26.80;13.60
67559;DHT22;54388;53.536;49.300;2023-05-07T07:11:43;27.10;13.50
67559;DHT22;54388;53.536;49.300;2023-05-07T07:14:10;27.30;13.40
67559;DHT22;54388;53.536;49.300;2023-05-07T07:16:41;27.70;13.30
67559;DHT22;54388;53.536;49.300;2023-05-07T07:19:08;27.80;13.50
67559;DHT22;54388;53.536;49.300;2023-05-07T07:21:35;27.90;13.00
67559;DHT22;54388;53.536;49.300;2023-05-07T07:24:03;28.10;13.00
67559;DHT22;54388;53.536;49.300;2023-05-07T07:26:30;28.10;13.10
67559;DHT22;54388;53.536;49.300;2023-05-07T07:28:57;28.10;13.20
67559;DHT22;54388;53.536;49.300;2023-05-07T07:31:25;28.10;13.10
67559;DHT22;54388;53.536;49.300;2023-05-07T07:33:52;28.30;13.30
67559;DHT22;54388;53.536;49.300;2023-05-07T07:36:18;28.40;13.30
67559;DHT22;54388;53.536;49.300;2023-05-07T07:38:47;28.50;13.00
67559;DHT22;54388;53.536;49.300;2023-05-07T07:41:16;28.70;12.90
67559;DHT22;54388;53.536;49.300;2023-05-07T07:43:43;28.70;12.90
67559;DHT22;54388;53.536;49.300;2023-05-07T07:46:09;28.80;12.90
67559;DHT22;54388;53.536;49.300;2023-05-07T07:48:36;28.70;12.80
67559;DHT22;54388;53.536;49.300;2023-05-07T07:51:05;28.80;12.90
67559;DHT22;54388;53.536;49.300;2023-05-07T07:53:34;28.70;12.80
67559;DHT22;54388;53.536;49.300;2023-05-07T07:56:03;28.60;13.10
67559;DHT22;54388;53.536;49.300;2023-05-07T07:58:29;28.60;13.10
67559;DHT22;54388;53.536;49.300;2023-05-07T08:01:03;28.70;13.30
67559;DHT22;54388;53.536;49.300;2023-05-07T08:03:32;28.80;13.20
67559;DHT22;54388;53.536;49.300;2023-05-07T08:06:03;28.80;14.00
67559;DHT22;54388;53.536;49.300;2023-05-07T08:10:57;28.60;13.00
67559;DHT22;54388;53.536;49.300;2023-05-07T08:13:25;28.50;13.10
67559;DHT22;54388;53.536;49.300;2023-05-07T08:15:52;28.50;12.70
67559;DHT22;54388;53.536;49.300;2023-05-07T08:18:21;28.50;12.70
67559;DHT22;54388;53.536;49.300;2023-05-07T08:20:51;28.60;12.80
67559;DHT22;54388;53.536;49.300;2023-05-07T08:23:18;28.70;12.90
67559;DHT22;54388;53.536;49.300;2023-05-07T08:25:44;28.70;12.80
67559;DHT22;54388;53.536;49.300;2023-05-07T08:28:13;28.60;13.00
67559;DHT22;54388;53.536;49.300;2023-05-07T08:30:40;28.40;12.30
67559;DHT22;54388;53.536;49.300;2023-05-07T08:33:09;28.50;12.40
67559;DHT22;54388;53.536;49.300;2023-05-07T08:35:38;28.60;12.60
67559;DHT22;54388;53.536;49.300;2023-05-07T08:38:07;28.70;12.80
67559;DHT22;54388;53.536;49.300;2023-05-07T08:40:39;28.70;12.80
67559;DHT22;54388;53.536;49.300;2023-05-07T08:43:07;28.80;12.80
67559;DHT22;54388;53.536;49.300;2023-05-07T08:45:39;28.80;12.90
67559;DHT22;54388;53.536;49.300;2023-05-07T08:48:09;28.80;12.60
67559;DHT22;54388;53.536;49.300;2023-05-07T08:50:43;28.70;12.20
67559;DHT22;54388;53.536;49.300;2023-05-07T08:53:10;28.70;12.30
67559;DHT22;54388;53.536;49.300;2023-05-07T08:55:36;28.70;12.40
67559;DHT22;54388;53.536;49.300;2023-05-07T08:58:03;28.60;12.70
67559;DHT22;54388;53.536;49.300;2023-05-07T09:00:32;28.50;12.80
67559;DHT22;54388;53.536;49.300;2023-05-07T09:03:00;28.20;13.00
67559;DHT22;54388;53.536;49.300;2023-05-07T09:05:33;28.00;13.00
67559;DHT22;54388;53.536;49.300;2023-05-07T09:08:02;27.90;12.50
67559;DHT22;54388;53.536;49.300;2023-05-07T09:10:33;27.90;12.40
67559;DHT22;54388;53.536;49.300;2023-05-07T09:13:00;27.90;12.50
67559;DHT22;54388;53.536;49.300;2023-05-07T09:15:28;27.90;12.80
67559;DHT22;54388;53.536;49.300;2023-05-07T09:17:59;27.80;13.00
67559;DHT22;54388;53.536;49.300;2023-05-07T09:20:29;27.80;13.30
67559;DHT22;54388;53.536;49.300;2023-05-07T09:22:56;27.50;13.30
67559;DHT22;54388;53.536;49.300;2023-05-07T09:25:33;27.30;13.50
67559;DHT22;54388;53.536;49.300;2023-05-07T09:28:04;27.10;13.60
67559;DHT22;54388;53.536;49.300;2023-05-07T09:30:33;27.00;13.70
67559;DHT22;54388;53.536;49.300;2023-05-07T09:33:03;26.90;13.70
67559;DHT22;54388;53.536;49.300;2023-05-07T09:35:30;26.70;13.70
67559;DHT22;54388;53.536;49.300;2023-05-07T09:37:58;26.60;13.80
67559;DHT22;54388;53.536;49.300;2023-05-07T09:40:27;26.50;13.90
67559;DHT22;54388;53.536;49.300;2023-05-07T09:42:54;26.30;13.90
67559;DHT22;54388;53.536;49.300;2023-05-07T09:45:30;26.40;13.90
67559;DHT22;54388;53.536;49.300;2023-05-07T09:47:58;26.40;14.00
67559;DHT22;54388;53.536;49.300;2023-05-07T09:50:39;26.50;13.50
67559;DHT22;54388;53.536;49.300;2023-05-07T09:53:07;26.50;13.30
67559;DHT22;54388;53.536;49.300;2023-05-07T09:55:38;26.50;13.30
67559;DHT22;54388;53.536;49.300;2023-05-07T09:58:06;26.50;13.20
67559;DHT22;54388;53.536;49.300;2023-05-07T10:00:38;26.50;13.00
67559;DHT22;54388;53.536;49.300;2023-05-07T10:03:09;26.60;13.00
67559;DHT22;54388;53.536;49.300;2023-05-07T10:05:39;26.70;13.10
67559;DHT22;54388;53.536;49.300;2023-05-07T10:08:06;26.80;13.20
67559;DHT22;54388;53.536;49.300;2023-05-07T10:10:36;26.70;13.20
67559;DHT22;54388;53.536;49.300;2023-05-07T10:13:04;26.70;13.30
67559;DHT22;54388;53.536;49.300;2023-05-07T10:15:40;26.60;13.10
67559;DHT22;54388;53.536;49.300;2023-05-07T10:18:08;26.50;12.90
67559;DHT22;54388;53.536;49.300;2023-05-07T10:20:36;26.50;13.10
67559;DHT22;54388;53.536;49.300;2023-05-07T10:23:08;26.50;13.20
67559;DHT22;54388;53.536;49.300;2023-05-07T10:25:38;26.40;13.30
67559;DHT22;54388;53.536;49.300;2023-05-07T10:28:07;26.50;13.30
67559;DHT22;54388;53.536;49.300;2023-05-07T10:33:17;26.70;13.10
67559;DHT22;54388;53.536;49.300;2023-05-07T10:35:46;26.60;13.00
67559;DHT22;54388;53.536;49.300;2023-05-07T10:38:13;26.50;13.10
67559;DHT22;54388;53.536;49.300;2023-05-07T10:40:40;26.40;13.10
67559;DHT22;54388;53.536;49.300;2023-05-07T10:43:07;26.20;13.90
67559;DHT22;54388;53.536;49.300;2023-05-07T10:45:33;26.10;13.10
67559;DHT22;54388;53.536;49.300;2023-05-07T10:50:39;26.20;13.00
67559;DHT22;54388;53.536;49.300;2023-05-07T10:55:48;26.30;12.90
67559;DHT22;54388;53.536;49.300;2023-05-07T10:58:29;26.50;12.80
67559;DHT22;54388;53.536;49.300;2023-05-07T11:01:00;26.80;13.60
67559;DHT22;54388;53.536;49.300;2023-05-07T11:03:28;27.00;12.60
67559;DHT22;54388;53.536;49.300;2023-05-07T11:06:14;27.30;12.60
67559;DHT22;54388;53.536;49.300;2023-05-07T11:08:59;27.30;12.70
67559;DHT22;54388;53.536;49.300;2023-05-07T11:11:49;27.30;12.60
67559;DHT22;54388;53.536;49.300;2023-05-07T11:17:14;27.40;12.40
67559;DHT22;54388;53.536;49.300;2023-05-07T11:19:56;27.50;12.20
67559;DHT22;54388;53.536;49.300;2023-05-07T11:25:03;27.70;12.30
67559;DHT22;54388;53.536;49.300;2023-05-07T11:27:35;27.60;12.30
67559;DHT22;54388;53.536;49.300;2023-05-07T11:30:03;27.50;12.40
67559;DHT22;54388;53.536;49.300;2023-05-07T11:32:32;27.40;12.60
67559;DHT22;54388;53.536;49.300;2023-05-07T11:35:00;27.30;12.40
67559;DHT22;54388;53.536;49.300;2023-05-07T11:37:29;27.40;12.50
67559;DHT22;54388;53.536;49.300;2023-05-07T11:40:07;27.60;12.40
67559;DHT22;54388;53.536;49.300;2023-05-07T11:42:36;27.80;12.40
67559;DHT22;54388;53.536;49.300;2023-05-07T11:45:06;28.00;12.30
67559;DHT22;54388;53.536;49.300;2023-05-07T11:47:34;28.10;12.20
67559;DHT22;54388;53.536;49.300;2023-05-07T11:50:08;28.10;12.30
67559;DHT22;54388;53.536;49.300;2023-05-07T11:52:39;28.00;12.20
67559;DHT22;54388;53.536;49.300;2023-05-07T11:55:08;28.00;12.20
67559;DHT22;54388;53.536;49.300;2023-05-07T11:57:35;28.00;12.10
67559;DHT22;54388;53.536;49.300;2023-05-07T12:00:04;28.10;12.20
67559;DHT22;54388;53.536;49.300;2023-05-07T12:02:31;28.10;12.10
67559;DHT22;54388;53.536;49.300;2023-05-07T12:05:02;28.10;12.00
67559;DHT22;54388;53.536;49.300;2023-05-07T12:07:29;28.20;12.00
67559;DHT22;54388;53.536;49.300;2023-05-07T12:09:56;28.10;11.90
67559;DHT22;54388;53.536;49.300;2023-05-07T12:12:23;28.10;12.10
67559;DHT22;54388;53.536;49.300;2023-05-07T12:14:55;28.10;13.00
67559;DHT22;54388;53.536;49.300;2023-05-07T12:17:22;28.30;11.90
67559;DHT22;54388;53.536;49.300;2023-05-07T12:19:52;28.60;11.80
67559;DHT22;54388;53.536;49.300;2023-05-07T12:22:22;28.70;11.70
67559;DHT22;54388;53.536;49.300;2023-05-07T12:24:56;28.90;11.80
67559;DHT22;54388;53.536;49.300;2023-05-07T12:27:24;28.90;11.90
67559;DHT22;54388;53.536;49.300;2023-05-07T12:29:51;28.80;11.90
67559;DHT22;54388;53.536;49.300;2023-05-07T12:32:21;28.80;12.00
67559;DHT22;54388;53.536;49.300;2023-05-07T12:34:53;28.70;11.70
67559;DHT22;54388;53.536;49.300;2023-05-07T12:37:26;28.80;11.60
67559;DHT22;54388;53.536;49.300;2023-05-07T12:40:10;28.90;11.70
67559;DHT22;54388;53.536;49.300;2023-05-07T12:42:40;28.90;11.60
67559;DHT22;54388;53.536;49.300;2023-05-07T12:45:12;28.90;11.70
67559;DHT22;54388;53.536;49.300;2023-05-07T12:47:43;29.10;11.30
67559;DHT22;54388;53.536;49.300;2023-05-07T12:50:12;29.20;11.30
67559;DHT22;54388;53.536;49.300;2023-05-07T12:52:43;29.20;11.20
67559;DHT22;54388;53.536;49.300;2023-05-07T12:55:14;29.30;11.20
67559;DHT22;54388;53.536;49.300;2023-05-07T12:57:45;29.30;11.30
67559;DHT22;54388;53.536;49.300;2023-05-07T13:00:14;29.10;11.40
67559;DHT22;54388;53.536;49.300;2023-05-07T13:02:42;28.90;11.50
67559;DHT22;54388;53.536;49.300;2023-05-07T13:05:14;28.80;11.60
67559;DHT22;54388;53.536;49.300;2023-05-07T13:07:53;28.70;11.60
67559;DHT22;54388;53.536;49.300;2023-05-07T13:10:23;28.70;11.60
67559;DHT22;54388;53.536;49.300;2023-05-07T13:12:50;28.50;11.60
67559;DHT22;54388;53.536;49.300;2023-05-07T13:15:17;28.50;11.50
67559;DHT22;54388;53.536;49.300;2023-05-07T13:17:44;28.60;11.50
67559;DHT22;54388;53.536;49.300;2023-05-07T13:20:12;28.60;11.50
67559;DHT22;54388;53.536;49.300;2023-05-07T13:22:44;28.70;11.60
67559;DHT22;54388;53.536;49.300;2023-05-07T13:25:13;28.70;11.70
67559;DHT22;54388;53.536;49.300;2023-05-07T13:27:39;28.60;11.80
67559;DHT22;54388;53.536;49.300;2023-05-07T13:30:07;28.60;11.90
67559;DHT22;54388;53.536;49.300;2023-05-07T13:32:33;28.60;12.10
67559;DHT22;54388;53.536;49.300;2023-05-07T13:35:01;28.40;12.00
67559;DHT22;54388;53.536;49.300;2023-05-07T13:37:28;28.40;11.80
67559;DHT22;54388;53.536;49.300;2023-05-07T13:39:54;28.60;11.80
67559;DHT22;54388;53.536;49.300;2023-05-07T13:42:21;28.70;11.90
67559;DHT22;54388;53.536;49.300;2023-05-07T13:44:51;28.80;11.90
67559;DHT22;54388;53.536;49.300;2023-05-07T13:47:17;28.80;11.90
67559;DHT22;54388;53.536;49.300;2023-05-07T13:49:44;28.70;11.90
67559;DHT22;54388;53.536;49.300;2023-05-07T13:52:16;28.60;12.00
67559;DHT22;54388;53.536;49.300;2023-05-07T13:54:43;28.50;12.10
67559;DHT22;54388;53.536;49.300;2023-05-07T13:57:10;28.50;12.00
67559;DHT22;54388;53.536;49.300;2023-05-07T13:59:40;28.60;12.00
67559;DHT22;54388;53.536;49.300;2023-05-07T14:02:07;28.50;11.90
67559;DHT22;54388;53.536;49.300;2023-05-07T14:04:35;28.40;11.90
67559;DHT22;54388;53.536;49.300;2023-05-07T14:07:02;28.30;11.90
67559;DHT22;54388;53.536;49.300;2023-05-07T14:09:32;28.30;12.00
67559;DHT22;54388;53.536;49.300;2023-05-07T14:11:59;28.30;12.00
67559;DHT22;54388;53.536;49.300;2023-05-07T14:14:25;28.30;12.00
67559;DHT22;54388;53.536;49.300;2023-05-07T14:16:52;28.20;12.00
67559;DHT22;54388;53.536;49.300;2023-05-07T14:19:21;28.10;12.10
67559;DHT22;54388;53.536;49.300;2023-05-07T14:21:51;28.00;12.10
67559;DHT22;54388;53.536;49.300;2023-05-07T14:24:21;28.10;12.00
67559;DHT22;54388;53.536;49.300;2023-05-07T14:26:47;28.10;12.00
67559;DHT22;54388;53.536;49.300;2023-05-07T14:29:14;28.10;12.10
67559;DHT22;54388;53.536;49.300;2023-05-07T14:31:47;28.10;12.20
67559;DHT22;54388;53.536;49.300;2023-05-07T14:34:14;28.00;12.10
67559;DHT22;54388;53.536;49.300;2023-05-07T14:36:41;28.00;12.10
67559;DHT22;54388;53.536;49.300;2023-05-07T14:39:08;28.00;12.10
67559;DHT22;54388;53.536;49.300;2023-05-07T14:41:34;28.00;12.20
67559;DHT22;54388;53.536;49.300;2023-05-07T14:44:01;27.90;12.20
67559;DHT22;54388;53.536;49.300;2023-05-07T14:46:32;27.80;12.40
67559;DHT22;54388;53.536;49.300;2023-05-07T14:49:02;27.70;12.30
67559;DHT22;54388;53.536;49.300;2023-05-07T14:51:29;27.70;12.30
67559;DHT22;54388;53.536;49.300;2023-05-07T14:53:55;27.60;12.20
67559;DHT22;54388;53.536;49.300;2023-05-07T14:56:25;27.60;12.40
67559;DHT22;54388;53.536;49.300;2023-05-07T14:58:52;27.60;12.50
67559;DHT22;54388;53.536;49.300;2023-05-07T15:01:25;27.50;12.30
67559;DHT22;54388;53.536;49.300;2023-05-07T15:03:52;27.50;12.30
67559;DHT22;54388;53.536;49.300;2023-05-07T15:06:24;27.40;12.20
67559;DHT22;54388;53.536;49.300;2023-05-07T15:08:51;27.40;12.30
67559;DHT22;54388;53.536;49.300;2023-05-07T15:11:18;27.30;12.40
67559;DHT22;54388;53.536;49.300;2023-05-07T15:13:44;27.20;12.40
67559;DHT22;54388;53.536;49.300;2023-05-07T15:16:14;26.90;12.40
67559;DHT22;54388;53.536;49.300;2023-05-07T15:18:45;26.70;12.40
67559;DHT22;54388;53.536;49.300;2023-05-07T15:21:15;26.50;12.60
67559;DHT22;54388;53.536;49.300;2023-05-07T15:23:42;26.30;12.60
67559;DHT22;54388;53.536;49.300;2023-05-07T15:26:13;26.10;12.60
67559;DHT22;54388;53.536;49.300;2023-05-07T15:28:42;25.80;12.70
67559;DHT22;54388;53.536;49.300;2023-05-07T15:31:12;25.60;12.80
67559;DHT22;54388;53.536;49.300;2023-05-07T15:33:41;25.50;12.90
67559;DHT22;54388;53.536;49.300;2023-05-07T15:36:08;25.30;13.00
67559;DHT22;54388;53.536;49.300;2023-05-07T15:38:35;25.10;13.10
67559;DHT22;54388;53.536;49.300;2023-05-07T15:41:04;24.90;13.40
67559;DHT22;54388;53.536;49.300;2023-05-07T15:43:33;24.70;13.50
67559;DHT22;54388;53.536;49.300;2023-05-07T15:46:00;24.50;13.60
67559;DHT22;54388;53.536;49.300;2023-05-07T15:48:29;24.30;13.80